Wilmore, PA

6:04 AM EST on February 01, 2015 (GMT -0500)
Portage Boro | Change Station
CLOSE
Current Station
Personal Weather Station
Location: Portage, PA
Elevation: 1690 ft
Nearby Weather Stations
Active Advisory: Winter Storm Warning

Elev 1690 ft 40.39 °N, 78.67 °W | Updated 6 seconds ago

Overcast
Overcast
19.4 °F
Feels Like 19 °F
N
0.0
Wind Variable Wind from WSW
Gusts 0.0 mph

Today
High -- | Low -- °F
--% Chance of Precip.
Yesterday
High -- | Low -- °F
Precip. -- in
7:24 AM 5:32 PM
Waxing Gibbous, 94% visible
Pressure 30.20 in
Visibility 10.0 miles
Clouds Mostly Cloudy 3000 ft
Mostly Cloudy 10000 ft
Overcast 12000 ft
Windchill 19 °F
Dew Point 14 °F
Humidity 78%
Rainfall 0.00 in
Snow Depth Not available.
UV 0 out of 12
Pollen .10 out of 12
Air Quality Not available.
Flu Activity Not available.
METAR KJST 011054Z AUTO 23005KT 10SM BKN030 BKN100 OVC120 M04/M09 A3010 RMK AO2 SLP226 T10391094

More Conditions Fewer Conditions

Pressure 30.20 in
Visibility 10.0 miles
Clouds Mostly Cloudy 3000 ft
Mostly Cloudy 10000 ft
Overcast 12000 ft
Windchill 19 °F
Dew Point 14 °F
Humidity 78%
Rainfall 0.00 in
Snow Depth Not available.
UV 0 out of 12
Pollen .10 out of 12
Air Quality Not available.
Flu Activity Not available.
METAR KJST 011054Z AUTO 23005KT 10SM BKN030 BKN100 OVC120 M04/M09 A3010 RMK AO2 SLP226 T10391094

More Conditions Fewer Conditions

10-Day Weather Forecast

Almanac

Astronomy

Feb. 01, 2015 Rise Set
Actual Time
Civil Twilight
Nautical Twilight
Astronomical Twilight
Moon
Length of Visible Light
Length of Day
Tomorrow will be .
, % of the Moon is Illuminated

Today's Extremes

State Highs State Lows

Community

WunderPhotos

Upload Photos

1,792,345 photos uploaded!

WunderBlogs® & News

Nearby

Air Quality

  Air Quality AQ Index Pollutant
Not available.

Snow Depth

Station Depth Elevation

Earthquake Activity

City Distance Mag. Time & Date
Minimum magnitude displayed is 2.5.

Coastal Water Temperatures

Place Temperature

Nearby Weather Stations